sensor_id;sensor_type;location;lat;lon;timestamp;pressure;altitude;pressure_sealevel;temperature;humidity
19210;BME280;9738;51.654;14.238;2023-02-28T00:00:35;101985.34;;;-0.42;100.00
19210;BME280;9738;51.654;14.238;2023-02-28T00:03:01;101985.28;;;-0.41;100.00
19210;BME280;9738;51.654;14.238;2023-02-28T00:05:28;101984.34;;;-0.38;100.00
19210;BME280;9738;51.654;14.238;2023-02-28T00:07:55;101979.09;;;-0.38;100.00
19210;BME280;9738;51.654;14.238;2023-02-28T00:10:26;101979.91;;;-0.36;100.00
19210;BME280;9738;51.654;14.238;2023-02-28T00:12:54;101976.44;;;-0.37;100.00
19210;BME280;9738;51.654;14.238;2023-02-28T00:15:23;101974.72;;;-0.38;100.00
19210;BME280;9738;51.654;14.238;2023-02-28T00:17:49;101982.59;;;-0.38;100.00
19210;BME280;9738;51.654;14.238;2023-02-28T00:20:15;101979.97;;;-0.38;100.00
19210;BME280;9738;51.654;14.238;2023-02-28T00:22:47;101977.38;;;-0.39;100.00
19210;BME280;9738;51.654;14.238;2023-02-28T00:25:15;101977.38;;;-0.39;100.00
19210;BME280;9738;51.654;14.238;2023-02-28T00:27:43;101973.84;;;-0.38;100.00
19210;BME280;9738;51.654;14.238;2023-02-28T00:30:15;101975.59;;;-0.39;100.00
19210;BME280;9738;51.654;14.238;2023-02-28T00:32:43;101978.22;;;-0.39;100.00
19210;BME280;9738;51.654;14.238;2023-02-28T00:35:10;101975.59;;;-0.39;100.00
19210;BME280;9738;51.654;14.238;2023-02-28T00:37:36;101980.91;;;-0.40;100.00
19210;BME280;9738;51.654;14.238;2023-02-28T00:40:03;101980.91;;;-0.40;100.00
19210;BME280;9738;51.654;14.238;2023-02-28T00:42:33;101980.03;;;-0.41;100.00
19210;BME280;9738;51.654;14.238;2023-02-28T00:44:59;101975.66;;;-0.40;100.00
19210;BME280;9738;51.654;14.238;2023-02-28T00:47:26;101980.91;;;-0.40;100.00
19210;BME280;9738;51.654;14.238;2023-02-28T00:49:52;101979.19;;;-0.41;100.00
19210;BME280;9738;51.654;14.238;2023-02-28T00:52:18;101984.44;;;-0.41;100.00
19210;BME280;9738;51.654;14.238;2023-02-28T00:54:44;101980.91;;;-0.40;100.00
19210;BME280;9738;51.654;14.238;2023-02-28T00:57:10;101976.56;;;-0.41;100.00
19210;BME280;9738;51.654;14.238;2023-02-28T00:59:35;101973.94;;;-0.41;100.00
19210;BME280;9738;51.654;14.238;2023-02-28T01:02:02;101982.72;;;-0.42;100.00
19210;BME280;9738;51.654;14.238;2023-02-28T01:04:28;101980.09;;;-0.42;100.00
19210;BME280;9738;51.654;14.238;2023-02-28T01:06:53;101979.25;;;-0.43;100.00
19210;BME280;9738;51.654;14.238;2023-02-28T01:09:20;101986.25;;;-0.43;100.00
19210;BME280;9738;51.654;14.238;2023-02-28T01:11:45;101982.78;;;-0.45;100.00
19210;BME280;9738;51.654;14.238;2023-02-28T01:14:16;101981.06;;;-0.46;100.00
19210;BME280;9738;51.654;14.238;2023-02-28T01:16:43;101981.13;;;-0.48;100.00
19210;BME280;9738;51.654;14.238;2023-02-28T01:19:09;101976.84;;;-0.52;100.00
19210;BME280;9738;51.654;14.238;2023-02-28T01:21:34;101978.72;;;-0.56;100.00
19210;BME280;9738;51.654;14.238;2023-02-28T01:24:02;101984.09;;;-0.60;100.00
19210;BME280;9738;51.654;14.238;2023-02-28T01:26:29;101982.50;;;-0.66;100.00
19210;BME280;9738;51.654;14.238;2023-02-28T01:28:54;101976.50;;;-0.71;100.00
19210;BME280;9738;51.654;14.238;2023-02-28T01:31:22;101983.56;;;-0.73;100.00
19210;BME280;9738;51.654;14.238;2023-02-28T01:33:49;101979.28;;;-0.77;100.00
19210;BME280;9738;51.654;14.238;2023-02-28T01:36:18;101977.72;;;-0.83;100.00
19210;BME280;9738;51.654;14.238;2023-02-28T01:38:46;101978.69;;;-0.87;100.00
19210;BME280;9738;51.654;14.238;2023-02-28T01:41:19;101970.13;;;-0.93;100.00
19210;BME280;9738;51.654;14.238;2023-02-28T01:46:12;101969.59;;;-1.06;100.00
19210;BME280;9738;51.654;14.238;2023-02-28T01:48:40;101965.41;;;-1.15;100.00
19210;BME280;9738;51.654;14.238;2023-02-28T01:51:12;101967.31;;;-1.20;100.00
19210;BME280;9738;51.654;14.238;2023-02-28T01:53:45;101973.53;;;-1.24;100.00
19210;BME280;9738;51.654;14.238;2023-02-28T01:56:13;101966.66;;;-1.29;100.00
19210;BME280;9738;51.654;14.238;2023-02-28T01:58:53;101970.28;;;-1.33;100.00
19210;BME280;9738;51.654;14.238;2023-02-28T02:01:21;101967.72;;;-1.37;100.00
19210;BME280;9738;51.654;14.238;2023-02-28T02:03:49;101969.53;;;-1.39;100.00
19210;BME280;9738;51.654;14.238;2023-02-28T02:06:27;101963.50;;;-1.42;100.00
19210;BME280;9738;51.654;14.238;2023-02-28T02:08:55;101970.50;;;-1.43;100.00
19210;BME280;9738;51.654;14.238;2023-02-28T02:11:23;101962.69;;;-1.44;100.00
19210;BME280;9738;51.654;14.238;2023-02-28T02:14:02;101963.59;;;-1.45;100.00
19210;BME280;9738;51.654;14.238;2023-02-28T02:22:43;101952.41;;;-1.53;100.00
19210;BME280;9738;51.654;14.238;2023-02-28T02:25:30;101953.41;;;-1.57;100.00
19210;BME280;9738;51.654;14.238;2023-02-28T02:39:16;101943.97;;;-1.66;100.00
19210;BME280;9738;51.654;14.238;2023-02-28T02:41:52;101946.72;;;-1.71;100.00
19210;BME280;9738;51.654;14.238;2023-02-28T02:44:38;101947.69;;;-1.75;100.00
19210;BME280;9738;51.654;14.238;2023-02-28T02:47:15;101944.31;;;-1.80;100.00
19210;BME280;9738;51.654;14.238;2023-02-28T02:49:46;101944.44;;;-1.86;100.00
19210;BME280;9738;51.654;14.238;2023-02-28T02:52:18;101942.88;;;-1.93;100.00
19210;BME280;9738;51.654;14.238;2023-02-28T02:54:48;101940.38;;;-1.99;100.00
19210;BME280;9738;51.654;14.238;2023-02-28T02:57:27;101940.47;;;-2.04;100.00
19210;BME280;9738;51.654;14.238;2023-02-28T02:59:55;101943.22;;;-2.08;100.00
19210;BME280;9738;51.654;14.238;2023-02-28T03:02:23;101939.84;;;-2.13;100.00
19210;BME280;9738;51.654;14.238;2023-02-28T03:04:52;101943.41;;;-2.18;100.00
19210;BME280;9738;51.654;14.238;2023-02-28T03:07:20;101946.16;;;-2.22;100.00
19210;BME280;9738;51.654;14.238;2023-02-28T03:09:52;101950.63;;;-2.27;100.00
19210;BME280;9738;51.654;14.238;2023-02-28T03:12:20;101949.88;;;-2.34;100.00
19210;BME280;9738;51.654;14.238;2023-02-28T03:20:41;101960.75;;;-2.54;100.00
19210;BME280;9738;51.654;14.238;2023-02-28T03:26:23;101958.31;;;-2.63;100.00
19210;BME280;9738;51.654;14.238;2023-02-28T03:29:05;101961.00;;;-2.67;100.00
19210;BME280;9738;51.654;14.238;2023-02-28T03:31:35;101961.13;;;-2.72;100.00
19210;BME280;9738;51.654;14.238;2023-02-28T03:34:08;101961.13;;;-2.74;100.00
19210;BME280;9738;51.654;14.238;2023-02-28T03:36:39;101960.19;;;-2.69;100.00
19210;BME280;9738;51.654;14.238;2023-02-28T03:39:15;101961.13;;;-2.72;100.00
19210;BME280;9738;51.654;14.238;2023-02-28T03:41:45;101967.31;;;-2.78;100.00
19210;BME280;9738;51.654;14.238;2023-02-28T03:44:20;101961.97;;;-2.72;100.00
19210;BME280;9738;51.654;14.238;2023-02-28T03:46:56;101971.56;;;-2.72;100.00
19210;BME280;9738;51.654;14.238;2023-02-28T03:49:30;101970.84;;;-2.79;100.00
19210;BME280;9738;51.654;14.238;2023-02-28T03:52:00;101970.94;;;-2.85;100.00
19210;BME280;9738;51.654;14.238;2023-02-28T03:54:31;101975.34;;;-2.88;100.00
19210;BME280;9738;51.654;14.238;2023-02-28T03:59:59;101982.53;;;-3.00;100.00
19210;BME280;9738;51.654;14.238;2023-02-28T04:02:29;101980.91;;;-3.07;100.00
19210;BME280;9738;51.654;14.238;2023-02-28T04:04:56;101980.91;;;-3.05;100.00
19210;BME280;9738;51.654;14.238;2023-02-28T04:07:22;101980.91;;;-3.07;100.00
19210;BME280;9738;51.654;14.238;2023-02-28T04:09:48;101984.50;;;-3.11;100.00
19210;BME280;9738;51.654;14.238;2023-02-28T04:12:14;101980.25;;;-3.18;100.00
19210;BME280;9738;51.654;14.238;2023-02-28T04:14:40;101980.25;;;-3.19;100.00
19210;BME280;9738;51.654;14.238;2023-02-28T04:17:05;101986.44;;;-3.25;100.00
19210;BME280;9738;51.654;14.238;2023-02-28T04:19:32;101988.22;;;-3.27;100.00
19210;BME280;9738;51.654;14.238;2023-02-28T04:21:57;101984.69;;;-3.24;100.00
19210;BME280;9738;51.654;14.238;2023-02-28T04:24:25;101984.69;;;-3.23;100.00
19210;BME280;9738;51.654;14.238;2023-02-28T04:26:54;101985.59;;;-3.24;100.00
19210;BME280;9738;51.654;14.238;2023-02-28T04:29:23;101985.69;;;-3.32;100.00
19210;BME280;9738;51.654;14.238;2023-02-28T04:31:49;101991.91;;;-3.39;100.00
19210;BME280;9738;51.654;14.238;2023-02-28T04:34:16;101987.63;;;-3.43;100.00
19210;BME280;9738;51.654;14.238;2023-02-28T04:36:41;101989.44;;;-3.48;100.00
19210;BME280;9738;51.654;14.238;2023-02-28T04:39:08;101989.47;;;-3.49;100.00
19210;BME280;9738;51.654;14.238;2023-02-28T04:41:35;101988.59;;;-3.48;100.00
19210;BME280;9738;51.654;14.238;2023-02-28T04:44:01;101990.28;;;-3.46;100.00
19210;BME280;9738;51.654;14.238;2023-02-28T04:46:27;101986.88;;;-3.49;100.00
19210;BME280;9738;51.654;14.238;2023-02-28T04:48:53;101988.69;;;-3.55;100.00
19210;BME280;9738;51.654;14.238;2023-02-28T04:51:20;101985.22;;;-3.55;100.00
19210;BME280;9738;51.654;14.238;2023-02-28T04:53:46;101982.59;;;-3.55;100.00
19210;BME280;9738;51.654;14.238;2023-02-28T04:56:15;101981.72;;;-3.54;100.00
19210;BME280;9738;51.654;14.238;2023-02-28T04:58:41;101987.03;;;-3.60;100.00
19210;BME280;9738;51.654;14.238;2023-02-28T05:01:47;101988.78;;;-3.61;100.00
19210;BME280;9738;51.654;14.238;2023-02-28T05:04:14;101984.47;;;-3.65;100.00
19210;BME280;9738;51.654;14.238;2023-02-28T05:06:40;101983.69;;;-3.70;100.00
19210;BME280;9738;51.654;14.238;2023-02-28T05:09:06;101986.38;;;-3.74;100.00
19210;BME280;9738;51.654;14.238;2023-02-28T05:11:34;101988.22;;;-3.83;100.00
19210;BME280;9738;51.654;14.238;2023-02-28T05:14:05;101991.78;;;-3.88;100.00
19210;BME280;9738;51.654;14.238;2023-02-28T05:16:31;101992.66;;;-3.89;100.00
19210;BME280;9738;51.654;14.238;2023-02-28T05:18:58;101991.88;;;-3.96;100.00
19210;BME280;9738;51.654;14.238;2023-02-28T05:21:36;101995.47;;;-4.03;100.00
19210;BME280;9738;51.654;14.238;2023-02-28T05:24:05;102000.84;;;-4.15;100.00
19210;BME280;9738;51.654;14.238;2023-02-28T05:26:35;102006.13;;;-4.21;100.00
19210;BME280;9738;51.654;14.238;2023-02-28T05:29:02;102009.59;;;-4.21;100.00
19210;BME280;9738;51.654;14.238;2023-02-28T05:31:28;101997.41;;;-4.20;100.00
19210;BME280;9738;51.654;14.238;2023-02-28T05:33:53;102009.59;;;-4.18;100.00
19210;BME280;9738;51.654;14.238;2023-02-28T05:36:20;102006.13;;;-4.18;100.00
19210;BME280;9738;51.654;14.238;2023-02-28T05:38:50;102005.31;;;-4.23;100.00
19210;BME280;9738;51.654;14.238;2023-02-28T05:41:17;102011.44;;;-4.27;100.00
19210;BME280;9738;51.654;14.238;2023-02-28T05:43:43;102014.09;;;-4.30;100.00
19210;BME280;9738;51.654;14.238;2023-02-28T05:46:10;102013.28;;;-4.36;100.00
19210;BME280;9738;51.654;14.238;2023-02-28T05:48:39;102028.06;;;-4.36;100.00
19210;BME280;9738;51.654;14.238;2023-02-28T05:51:06;102025.47;;;-4.39;100.00
19210;BME280;9738;51.654;14.238;2023-02-28T05:53:33;102034.19;;;-4.42;100.00
19210;BME280;9738;51.654;14.238;2023-02-28T05:55:59;102030.78;;;-4.45;100.00
19210;BME280;9738;51.654;14.238;2023-02-28T05:58:25;102033.38;;;-4.44;100.00
19210;BME280;9738;51.654;14.238;2023-02-28T06:00:54;102044.69;;;-4.45;100.00
19210;BME280;9738;51.654;14.238;2023-02-28T06:03:20;102042.94;;;-4.46;100.00
19210;BME280;9738;51.654;14.238;2023-02-28T06:05:46;102038.59;;;-4.44;100.00
19210;BME280;9738;51.654;14.238;2023-02-28T06:08:12;102036.78;;;-4.40;100.00
19210;BME280;9738;51.654;14.238;2023-02-28T06:10:38;102050.66;;;-4.37;100.00
19210;BME280;9738;51.654;14.238;2023-02-28T06:13:05;102054.03;;;-4.28;100.00
19210;BME280;9738;51.654;14.238;2023-02-28T06:15:31;102043.56;;;-4.24;100.00
19210;BME280;9738;51.654;14.238;2023-02-28T06:17:57;102049.56;;;-4.17;100.00
19210;BME280;9738;51.654;14.238;2023-02-28T06:20:25;102052.19;;;-4.17;100.00
19210;BME280;9738;51.654;14.238;2023-02-28T06:22:55;102047.94;;;-4.24;100.00
19210;BME280;9738;51.654;14.238;2023-02-28T06:25:21;102048.88;;;-4.31;100.00
19210;BME280;9738;51.654;14.238;2023-02-28T06:27:48;102047.97;;;-4.29;100.00
19210;BME280;9738;51.654;14.238;2023-02-28T06:30:14;102053.16;;;-4.27;100.00
19210;BME280;9738;51.654;14.238;2023-02-28T06:32:40;102061.00;;;-4.26;100.00
19210;BME280;9738;51.654;14.238;2023-02-28T06:35:07;102051.41;;;-4.24;100.00
19210;BME280;9738;51.654;14.238;2023-02-28T06:37:32;102059.13;;;-4.16;100.00
19210;BME280;9738;51.654;14.238;2023-02-28T06:39:58;102062.53;;;-4.10;100.00
19210;BME280;9738;51.654;14.238;2023-02-28T06:42:25;102058.97;;;-4.04;100.00
19210;BME280;9738;51.654;14.238;2023-02-28T06:44:55;102068.47;;;-3.97;100.00
19210;BME280;9738;51.654;14.238;2023-02-28T06:47:21;102070.16;;;-3.93;100.00
19210;BME280;9738;51.654;14.238;2023-02-28T06:49:48;102064.84;;;-3.87;100.00
19210;BME280;9738;51.654;14.238;2023-02-28T06:52:14;102063.06;;;-3.82;100.00
19210;BME280;9738;51.654;14.238;2023-02-28T06:54:40;102070.78;;;-3.74;100.00
19210;BME280;9738;51.654;14.238;2023-02-28T06:57:06;102071.53;;;-3.66;100.00
19210;BME280;9738;51.654;14.238;2023-02-28T06:59:32;102081.88;;;-3.58;100.00
19210;BME280;9738;51.654;14.238;2023-02-28T07:01:58;102075.66;;;-3.48;100.00
19210;BME280;9738;51.654;14.238;2023-02-28T07:04:24;102072.88;;;-3.39;100.00
19210;BME280;9738;51.654;14.238;2023-02-28T07:06:50;102073.59;;;-3.28;100.00
19210;BME280;9738;51.654;14.238;2023-02-28T07:09:15;102079.56;;;-3.19;100.00
19210;BME280;9738;51.654;14.238;2023-02-28T07:11:42;102082.00;;;-3.09;100.00
19210;BME280;9738;51.654;14.238;2023-02-28T07:14:08;102082.72;;;-2.99;100.00
19210;BME280;9738;51.654;14.238;2023-02-28T07:16:35;102074.69;;;-2.88;100.00
19210;BME280;9738;51.654;14.238;2023-02-28T07:19:01;102075.44;;;-2.79;100.00
19210;BME280;9738;51.654;14.238;2023-02-28T07:21:27;102080.44;;;-2.66;100.00
19210;BME280;9738;51.654;14.238;2023-02-28T07:23:53;102081.94;;;-2.55;100.00
19210;BME280;9738;51.654;14.238;2023-02-28T07:26:20;102082.66;;;-2.45;100.00
19210;BME280;9738;51.654;14.238;2023-02-28T07:28:47;102079.81;;;-2.33;100.00
19210;BME280;9738;51.654;14.238;2023-02-28T07:31:14;102076.97;;;-2.21;100.00
19210;BME280;9738;51.654;14.238;2023-02-28T07:33:41;102080.19;;;-2.06;100.00
19210;BME280;9738;51.654;14.238;2023-02-28T07:36:10;102082.50;;;-1.93;100.00
19210;BME280;9738;51.654;14.238;2023-02-28T07:38:42;102083.13;;;-1.80;100.00
19210;BME280;9738;51.654;14.238;2023-02-28T07:41:09;102079.41;;;-1.70;100.00
19210;BME280;9738;51.654;14.238;2023-02-28T07:43:35;102093.06;;;-1.55;100.00
19210;BME280;9738;51.654;14.238;2023-02-28T07:46:07;102087.56;;;-1.43;100.00
19210;BME280;9738;51.654;14.238;2023-02-28T07:48:33;102093.44;;;-1.32;100.00
19210;BME280;9738;51.654;14.238;2023-02-28T07:50:59;102094.00;;;-1.19;100.00
19210;BME280;9738;51.654;14.238;2023-02-28T07:53:27;102097.97;;;-1.03;100.00
19210;BME280;9738;51.654;14.238;2023-02-28T07:55:57;102090.50;;;-0.83;100.00
19210;BME280;9738;51.654;14.238;2023-02-28T07:58:24;102082.19;;;-0.66;100.00
19210;BME280;9738;51.654;14.238;2023-02-28T08:00:50;102084.34;;;-0.47;100.00
19210;BME280;9738;51.654;14.238;2023-02-28T08:03:21;102089.28;;;-0.35;100.00
19210;BME280;9738;51.654;14.238;2023-02-28T08:05:47;102085.34;;;-0.19;100.00
19210;BME280;9738;51.654;14.238;2023-02-28T08:08:17;102085.97;;;-0.11;100.00
19210;BME280;9738;51.654;14.238;2023-02-28T08:10:43;102085.88;;;-0.08;100.00
19210;BME280;9738;51.654;14.238;2023-02-28T08:13:09;102089.34;;;-0.07;100.00
19210;BME280;9738;51.654;14.238;2023-02-28T08:15:35;102089.19;;;-0.01;100.00
19210;BME280;9738;51.654;14.238;2023-02-28T08:18:01;102092.69;;;-0.01;100.00
19210;BME280;9738;51.654;14.238;2023-02-28T08:20:27;102090.03;;;-0.01;100.00
19210;BME280;9738;51.654;14.238;2023-02-28T08:22:54;102096.13;;;0.02;100.00
19210;BME280;9738;51.654;14.238;2023-02-28T08:25:20;102095.06;;;0.09;100.00
19210;BME280;9738;51.654;14.238;2023-02-28T08:27:45;102099.19;;;0.17;100.00
19210;BME280;9738;51.654;14.238;2023-02-28T08:30:13;102095.34;;;0.29;100.00
19210;BME280;9738;51.654;14.238;2023-02-28T08:32:39;102103.84;;;0.37;100.00
19210;BME280;9738;51.654;14.238;2023-02-28T08:35:06;102100.66;;;0.56;100.00
19210;BME280;9738;51.654;14.238;2023-02-28T08:37:32;102098.47;;;0.70;100.00
19210;BME280;9738;51.654;14.238;2023-02-28T08:39:58;102092.22;;;1.02;100.00
19210;BME280;9738;51.654;14.238;2023-02-28T08:42:24;102088.19;;;1.43;100.00
19210;BME280;9738;51.654;14.238;2023-02-28T08:44:50;102088.78;;;1.76;97.50
19210;BME280;9738;51.654;14.238;2023-02-28T08:47:16;102092.16;;;2.05;95.54
19210;BME280;9738;51.654;14.238;2023-02-28T08:49:42;102085.59;;;2.62;95.93
19210;BME280;9738;51.654;14.238;2023-02-28T08:52:08;102085.81;;;3.21;89.43
19210;BME280;9738;51.654;14.238;2023-02-28T08:54:35;102097.19;;;3.85;85.89
19210;BME280;9738;51.654;14.238;2023-02-28T08:57:01;102087.13;;;4.32;82.89
19210;BME280;9738;51.654;14.238;2023-02-28T08:59:28;102093.50;;;4.66;76.73
19210;BME280;9738;51.654;14.238;2023-02-28T09:01:54;102090.72;;;5.05;72.14
19210;BME280;9738;51.654;14.238;2023-02-28T09:04:20;102079.38;;;5.37;69.60
19210;BME280;9738;51.654;14.238;2023-02-28T09:06:46;102078.75;;;5.67;66.78
19210;BME280;9738;51.654;14.238;2023-02-28T09:09:15;102072.22;;;5.90;63.01
19210;BME280;9738;51.654;14.238;2023-02-28T09:11:40;102074.63;;;6.12;61.28
19210;BME280;9738;51.654;14.238;2023-02-28T09:14:07;102071.91;;;6.29;59.59
19210;BME280;9738;51.654;14.238;2023-02-28T09:16:33;102076.34;;;6.29;57.23
19210;BME280;9738;51.654;14.238;2023-02-28T09:19:00;102079.03;;;6.44;55.21
19210;BME280;9738;51.654;14.238;2023-02-28T09:21:26;102075.25;;;6.48;52.32
19210;BME280;9738;51.654;14.238;2023-02-28T09:23:52;102079.47;;;6.53;52.80
19210;BME280;9738;51.654;14.238;2023-02-28T09:26:22;102082.28;;;6.65;53.78
19210;BME280;9738;51.654;14.238;2023-02-28T09:28:49;102080.59;;;6.64;52.76
19210;BME280;9738;51.654;14.238;2023-02-28T09:31:17;102077.16;;;6.46;52.58
19210;BME280;9738;51.654;14.238;2023-02-28T09:33:48;102077.16;;;6.31;52.69
19210;BME280;9738;51.654;14.238;2023-02-28T09:36:14;102072.91;;;6.11;53.02
19210;BME280;9738;51.654;14.238;2023-02-28T09:38:40;102075.03;;;5.87;52.58
19210;BME280;9738;51.654;14.238;2023-02-28T09:41:17;102075.25;;;4.96;52.65
19210;BME280;9738;51.654;14.238;2023-02-28T09:43:49;102084.69;;;4.09;54.15
19210;BME280;9738;51.654;14.238;2023-02-28T09:46:25;102088.56;;;4.20;57.88
19210;BME280;9738;51.654;14.238;2023-02-28T09:48:54;102081.59;;;4.18;54.39
19210;BME280;9738;51.654;14.238;2023-02-28T09:54:23;102075.97;;;4.63;56.26
19210;BME280;9738;51.654;14.238;2023-02-28T09:57:37;102069.56;;;4.86;56.08
19210;BME280;9738;51.654;14.238;2023-02-28T10:05:05;102068.72;;;5.72;50.79
19210;BME280;9738;51.654;14.238;2023-02-28T10:10:42;102065.53;;;5.83;50.19
19210;BME280;9738;51.654;14.238;2023-02-28T10:14:10;102066.81;;;5.93;51.18
19210;BME280;9738;51.654;14.238;2023-02-28T10:16:31;102061.69;;;5.55;47.30
19210;BME280;9738;51.654;14.238;2023-02-28T10:19:05;102064.41;;;5.19;49.18
19210;BME280;9738;51.654;14.238;2023-02-28T10:22:13;102065.78;;;4.92;49.99
19210;BME280;9738;51.654;14.238;2023-02-28T10:24:42;102068.38;;;4.74;51.24
19210;BME280;9738;51.654;14.238;2023-02-28T10:27:16;102083.78;;;4.66;52.13
19210;BME280;9738;51.654;14.238;2023-02-28T10:29:45;102068.16;;;4.96;53.51
19210;BME280;9738;51.654;14.238;2023-02-28T10:32:17;102069.09;;;5.31;51.88
19210;BME280;9738;51.654;14.238;2023-02-28T10:34:44;102071.72;;;5.31;52.80
19210;BME280;9738;51.654;14.238;2023-02-28T10:37:13;102063.47;;;5.03;51.62
19210;BME280;9738;51.654;14.238;2023-02-28T10:39:44;102060.78;;;4.85;51.87
19210;BME280;9738;51.654;14.238;2023-02-28T10:42:37;102054.88;;;5.15;52.81
19210;BME280;9738;51.654;14.238;2023-02-28T10:45:09;102055.97;;;5.46;53.26
19210;BME280;9738;51.654;14.238;2023-02-28T10:47:41;102054.88;;;5.67;50.48
19210;BME280;9738;51.654;14.238;2023-02-28T10:50:33;102047.00;;;5.65;50.60
19210;BME280;9738;51.654;14.238;2023-02-28T11:03:47;102040.31;;;7.18;47.24
19210;BME280;9738;51.654;14.238;2023-02-28T11:06:22;102044.22;;;6.81;45.52
19210;BME280;9738;51.654;14.238;2023-02-28T11:08:55;102037.00;;;6.53;45.61
19210;BME280;9738;51.654;14.238;2023-02-28T11:11:22;102038.88;;;6.66;45.89
19210;BME280;9738;51.654;14.238;2023-02-28T11:13:53;102027.44;;;6.96;47.12
19210;BME280;9738;51.654;14.238;2023-02-28T11:16:20;102032.88;;;7.39;45.67
19210;BME280;9738;51.654;14.238;2023-02-28T11:18:52;102022.28;;;7.67;45.07
19210;BME280;9738;51.654;14.238;2023-02-28T11:21:27;102031.91;;;7.84;45.04
19210;BME280;9738;51.654;14.238;2023-02-28T11:24:03;102025.59;;;7.99;43.80
19210;BME280;9738;51.654;14.238;2023-02-28T11:26:44;102025.78;;;8.10;44.99
19210;BME280;9738;51.654;14.238;2023-02-28T11:29:19;102014.94;;;8.13;42.74
19210;BME280;9738;51.654;14.238;2023-02-28T11:34:29;102021.78;;;8.18;43.39
19210;BME280;9738;51.654;14.238;2023-02-28T11:36:57;102016.09;;;8.24;43.89
19210;BME280;9738;51.654;14.238;2023-02-28T11:39:24;102016.88;;;7.24;42.54
19210;BME280;9738;51.654;14.238;2023-02-28T11:47:18;102012.34;;;6.96;43.83
19210;BME280;9738;51.654;14.238;2023-02-28T11:52:44;102011.63;;;6.00;48.28
19210;BME280;9738;51.654;14.238;2023-02-28T11:55:17;102008.13;;;6.46;47.82
19210;BME280;9738;51.654;14.238;2023-02-28T12:04:23;102002.63;;;7.84;43.17
19210;BME280;9738;51.654;14.238;2023-02-28T12:06:50;101990.53;;;8.21;43.72
19210;BME280;9738;51.654;14.238;2023-02-28T12:09:36;101998.41;;;8.37;42.00
19210;BME280;9738;51.654;14.238;2023-02-28T12:12:23;101989.56;;;8.36;41.53
19210;BME280;9738;51.654;14.238;2023-02-28T12:18:08;101990.75;;;8.45;40.74
19210;BME280;9738;51.654;14.238;2023-02-28T12:21:04;101994.50;;;8.43;42.43
19210;BME280;9738;51.654;14.238;2023-02-28T12:26:34;101990.81;;;8.58;40.20
19210;BME280;9738;51.654;14.238;2023-02-28T12:29:19;101977.47;;;8.72;40.34
19210;BME280;9738;51.654;14.238;2023-02-28T12:31:54;101988.88;;;8.33;40.66
19210;BME280;9738;51.654;14.238;2023-02-28T12:34:27;101985.81;;;7.98;41.99
19210;BME280;9738;51.654;14.238;2023-02-28T12:36:55;101980.47;;;7.98;43.82
19210;BME280;9738;51.654;14.238;2023-02-28T12:39:51;101971.22;;;8.18;42.36
19210;BME280;9738;51.654;14.238;2023-02-28T12:42:27;101972.28;;;8.15;41.38
19210;BME280;9738;51.654;14.238;2023-02-28T12:44:59;101966.59;;;7.93;42.96
19210;BME280;9738;51.654;14.238;2023-02-28T12:47:26;101963.13;;;8.19;41.55
19210;BME280;9738;51.654;14.238;2023-02-28T12:49:58;101967.19;;;8.39;41.22
19210;BME280;9738;51.654;14.238;2023-02-28T12:52:35;101952.28;;;8.63;41.61
19210;BME280;9738;51.654;14.238;2023-02-28T12:55:08;101960.16;;;8.65;41.93
19210;BME280;9738;51.654;14.238;2023-02-28T12:57:52;101957.16;;;8.57;42.07
19210;BME280;9738;51.654;14.238;2023-02-28T13:00:31;101948.19;;;8.31;40.62
19210;BME280;9738;51.654;14.238;2023-02-28T13:03:28;101950.47;;;8.37;40.66
19210;BME280;9738;51.654;14.238;2023-02-28T13:06:16;101944.75;;;8.43;41.71
19210;BME280;9738;51.654;14.238;2023-02-28T13:09:02;101950.09;;;8.43;42.47
19210;BME280;9738;51.654;14.238;2023-02-28T13:11:31;101940.63;;;8.52;40.93
19210;BME280;9738;51.654;14.238;2023-02-28T13:14:03;101943.78;;;8.71;40.76
19210;BME280;9738;51.654;14.238;2023-02-28T13:19:18;101935.50;;;8.49;40.89
19210;BME280;9738;51.654;14.238;2023-02-28T13:21:46;101928.41;;;8.62;42.24
19210;BME280;9738;51.654;14.238;2023-02-28T13:24:37;101935.31;;;8.52;40.73
19210;BME280;9738;51.654;14.238;2023-02-28T13:29:32;101930.34;;;8.19;41.95
19210;BME280;9738;51.654;14.238;2023-02-28T13:34:33;101931.00;;;7.81;42.00
19210;BME280;9738;51.654;14.238;2023-02-28T13:47:30;101922.25;;;7.08;44.44
19210;BME280;9738;51.654;14.238;2023-02-28T13:56:03;101922.19;;;6.79;45.62
19210;BME280;9738;51.654;14.238;2023-02-28T13:58:41;101915.13;;;6.64;45.80
19210;BME280;9738;51.654;14.238;2023-02-28T14:01:41;101911.13;;;6.57;45.46
19210;BME280;9738;51.654;14.238;2023-02-28T14:04:46;101909.91;;;6.62;45.88
19210;BME280;9738;51.654;14.238;2023-02-28T14:07:26;101909.22;;;6.59;45.62
19210;BME280;9738;51.654;14.238;2023-02-28T14:10:07;101900.81;;;6.66;44.56
19210;BME280;9738;51.654;14.238;2023-02-28T14:18:05;101907.66;;;6.70;47.47
19210;BME280;9738;51.654;14.238;2023-02-28T14:20:40;101901.16;;;6.90;47.02
19210;BME280;9738;51.654;14.238;2023-02-28T14:23:19;101895.84;;;7.04;45.93
19210;BME280;9738;51.654;14.238;2023-02-28T14:28:39;101899.97;;;7.24;45.20
19210;BME280;9738;51.654;14.238;2023-02-28T14:31:13;101894.00;;;7.21;43.88
19210;BME280;9738;51.654;14.238;2023-02-28T14:34:00;101904.78;;;7.03;43.56
19210;BME280;9738;51.654;14.238;2023-02-28T14:39:24;101899.72;;;6.85;44.66
19210;BME280;9738;51.654;14.238;2023-02-28T14:41:51;101898.59;;;6.89;43.90
19210;BME280;9738;51.654;14.238;2023-02-28T14:44:25;101903.72;;;6.92;44.14
19210;BME280;9738;51.654;14.238;2023-02-28T14:46:57;101902.50;;;6.97;44.67
19210;BME280;9738;51.654;14.238;2023-02-28T14:49:42;101895.53;;;6.81;45.15
19210;BME280;9738;51.654;14.238;2023-02-28T14:54:37;101901.22;;;6.44;45.59
19210;BME280;9738;51.654;14.238;2023-02-28T14:57:03;101899.06;;;6.35;45.46
19210;BME280;9738;51.654;14.238;2023-02-28T14:59:32;101898.75;;;6.26;46.31